createdAt,value
2019-02-28T00:01:24.530Z,5.81
2019-02-28T00:03:58.018Z,5.76
2019-02-28T00:06:26.766Z,5.67
2019-02-28T00:08:56.094Z,5.67
2019-02-28T00:11:25.506Z,5.69
2019-02-28T00:13:56.589Z,5.71
2019-02-28T00:16:26.771Z,5.73
2019-02-28T00:18:55.509Z,5.72
2019-02-28T00:21:24.780Z,5.71
2019-02-28T00:23:57.321Z,5.73
2019-02-28T00:26:25.934Z,5.74
2019-02-28T00:29:00.484Z,5.66
2019-02-28T00:31:29.935Z,5.75
2019-02-28T00:34:02.041Z,5.72
2019-02-28T00:36:31.142Z,5.69
2019-02-28T00:39:00.748Z,5.84
2019-02-28T00:41:31.027Z,5.77
2019-02-28T00:44:01.848Z,5.70
2019-02-28T00:46:33.587Z,5.75
2019-02-28T00:49:05.296Z,5.71
2019-02-28T00:51:35.599Z,5.57
2019-02-28T00:54:05.016Z,5.56
2019-02-28T00:56:34.309Z,5.51
2019-02-28T00:59:03.627Z,5.60
2019-02-28T01:01:33.898Z,5.54
2019-02-28T01:04:03.270Z,5.40
2019-02-28T01:06:32.607Z,5.43
2019-02-28T01:09:01.939Z,5.37
2019-02-28T01:11:31.209Z,5.27
2019-02-28T01:14:01.515Z,5.39
2019-02-28T01:16:32.594Z,5.40
2019-02-28T01:19:01.869Z,5.33
2019-02-28T01:21:31.119Z,5.35
2019-02-28T01:24:01.807Z,5.30
2019-02-28T01:26:31.196Z,5.22
2019-02-28T01:29:02.059Z,5.06
2019-02-28T01:31:32.599Z,5.04
2019-02-28T01:34:02.843Z,5.04
2019-02-28T01:36:33.040Z,4.80
2019-02-28T01:39:02.361Z,4.83
2019-02-28T01:41:32.655Z,4.89
2019-02-28T01:44:04.783Z,4.84
2019-02-28T01:46:34.058Z,4.95
2019-02-28T01:49:04.693Z,5.00
2019-02-28T01:51:36.682Z,5.09
2019-02-28T01:54:05.068Z,5.19
2019-02-28T01:56:38.735Z,5.19
2019-02-28T01:59:09.090Z,5.07
2019-02-28T02:01:38.350Z,5.19
2019-02-28T02:04:06.918Z,5.23
2019-02-28T02:06:37.203Z,5.10
2019-02-28T02:09:08.136Z,5.14
2019-02-28T02:11:39.406Z,5.08
2019-02-28T02:14:11.033Z,5.05
2019-02-28T02:16:41.779Z,5.08
2019-02-28T02:19:17.532Z,5.08
2019-02-28T02:21:45.895Z,4.94
2019-02-28T02:24:15.181Z,4.89
2019-02-28T02:26:45.950Z,4.79
2019-02-28T02:29:15.334Z,4.76
2019-02-28T02:31:46.616Z,4.76
2019-02-28T02:34:16.872Z,4.65
2019-02-28T02:36:53.009Z,4.67
2019-02-28T02:39:17.888Z,4.62
2019-02-28T02:41:48.141Z,4.58
2019-02-28T02:44:18.491Z,4.45
2019-02-28T02:46:55.526Z,4.53
2019-02-28T02:49:20.716Z,4.42
2019-02-28T02:51:50.796Z,4.51
2019-02-28T02:54:20.353Z,4.39
2019-02-28T02:56:50.551Z,4.40
2019-02-28T02:59:22.224Z,4.36
2019-02-28T03:01:56.143Z,4.35
2019-02-28T03:04:23.623Z,4.23
2019-02-28T03:06:52.860Z,4.16
2019-02-28T03:09:23.123Z,3.98
2019-02-28T03:11:57.732Z,4.05
2019-02-28T03:14:26.320Z,3.96
2019-02-28T03:16:54.839Z,4.08
2019-02-28T03:19:24.119Z,4.04
2019-02-28T03:21:54.353Z,3.96
2019-02-28T03:24:26.405Z,4.03
2019-02-28T03:26:56.652Z,3.96
2019-02-28T03:29:27.403Z,3.78
2019-02-28T03:31:59.137Z,3.72
2019-02-28T03:34:27.262Z,3.68
2019-02-28T03:36:57.877Z,3.75
2019-02-28T03:39:28.252Z,3.72
2019-02-28T03:41:57.858Z,3.73
2019-02-28T03:44:28.180Z,3.64
2019-02-28T03:46:58.414Z,3.58
2019-02-28T03:49:30.549Z,3.69
2019-02-28T03:52:05.396Z,3.54
2019-02-28T03:54:30.349Z,3.54
2019-02-28T03:57:00.599Z,3.58
2019-02-28T03:59:31.216Z,3.54
2019-02-28T04:02:01.740Z,3.70
2019-02-28T04:04:32.063Z,3.65
2019-02-28T04:07:02.292Z,3.50
2019-02-28T04:09:31.538Z,3.44
2019-02-28T04:12:07.255Z,3.53
2019-02-28T04:14:34.254Z,3.47
2019-02-28T04:17:07.569Z,3.33
2019-02-28T04:19:37.839Z,3.20
2019-02-28T04:22:08.078Z,3.07
2019-02-28T04:24:37.439Z,3.06
2019-02-28T04:27:06.933Z,3.15
2019-02-28T04:29:38.098Z,3.19
2019-02-28T04:32:08.305Z,3.25
2019-02-28T04:34:38.543Z,3.14
2019-02-28T04:37:09.740Z,3.08
2019-02-28T04:39:39.029Z,3.06
2019-02-28T04:42:08.297Z,3.07
2019-02-28T04:44:38.543Z,3.08
2019-02-28T04:47:07.889Z,3.15
2019-02-28T04:49:38.160Z,2.97
2019-02-28T04:52:11.830Z,3.04
2019-02-28T04:54:41.327Z,3.01
2019-02-28T04:57:11.566Z,3.02
2019-02-28T04:59:42.121Z,3.06
2019-02-28T05:02:13.649Z,2.92
2019-02-28T05:04:43.890Z,2.80
2019-02-28T05:07:13.173Z,2.75
2019-02-28T05:09:45.293Z,2.76
2019-02-28T05:12:15.400Z,2.76
2019-02-28T05:14:46.907Z,2.52
2019-02-28T05:17:16.252Z,2.61
2019-02-28T05:19:46.479Z,2.61
2019-02-28T05:22:15.732Z,2.63
2019-02-28T05:24:46.035Z,2.67
2019-02-28T05:27:16.311Z,2.54
2019-02-28T05:29:46.543Z,2.49
2019-02-28T05:32:18.287Z,2.55
2019-02-28T05:34:51.020Z,2.58
2019-02-28T05:37:19.563Z,2.48
2019-02-28T05:39:51.192Z,2.49
2019-02-28T05:42:24.119Z,2.56
2019-02-28T05:44:54.383Z,2.60
2019-02-28T05:47:23.654Z,2.59
2019-02-28T05:49:53.024Z,2.69
2019-02-28T05:52:23.247Z,2.59
2019-02-28T05:54:53.851Z,2.31
2019-02-28T05:57:23.147Z,2.33
2019-02-28T05:59:53.390Z,2.34
2019-02-28T06:02:23.336Z,2.41
2019-02-28T06:04:55.300Z,2.42
2019-02-28T06:07:28.790Z,2.44
2019-02-28T06:09:57.102Z,2.62
2019-02-28T06:12:27.406Z,2.76
2019-02-28T06:15:02.256Z,2.76
2019-02-28T06:17:28.695Z,2.64
2019-02-28T06:19:57.995Z,2.79
2019-02-28T06:22:30.837Z,3.23
2019-02-28T06:25:00.862Z,3.59
2019-02-28T06:27:40.917Z,3.77
2019-02-28T06:30:03.097Z,3.79
2019-02-28T06:32:33.359Z,4.21
2019-02-28T06:35:02.683Z,4.98
2019-02-28T06:37:35.437Z,5.00
2019-02-28T06:40:05.144Z,6.75
2019-02-28T06:42:36.373Z,9.33
2019-02-28T06:45:11.060Z,9.97
2019-02-28T06:47:41.495Z,11.03
2019-02-28T06:50:13.813Z,12.51
2019-02-28T06:52:44.146Z,11.81
2019-02-28T06:55:15.211Z,11.05
2019-02-28T06:57:45.553Z,11.50
2019-02-28T07:00:19.218Z,11.31
2019-02-28T07:02:50.935Z,10.89
2019-02-28T07:05:24.632Z,11.96
2019-02-28T07:07:52.202Z,12.54
2019-02-28T07:10:22.477Z,12.26
2019-02-28T07:12:51.840Z,12.38
2019-02-28T07:15:24.796Z,12.80
2019-02-28T07:17:55.216Z,12.42
2019-02-28T07:20:24.553Z,12.67
2019-02-28T07:22:55.519Z,12.34
2019-02-28T07:25:24.899Z,12.97
2019-02-28T07:27:54.635Z,12.56
2019-02-28T07:30:26.384Z,11.87
2019-02-28T07:32:58.164Z,12.00
2019-02-28T07:35:32.881Z,12.06
2019-02-28T07:37:59.451Z,12.92
2019-02-28T07:40:33.294Z,13.23
2019-02-28T07:43:05.071Z,13.09
2019-02-28T07:45:35.742Z,13.36
2019-02-28T07:48:05.127Z,14.29
2019-02-28T07:50:35.564Z,14.81
2019-02-28T07:53:08.821Z,15.75
2019-02-28T07:55:39.069Z,16.19
2019-02-28T07:58:09.332Z,15.80
2019-02-28T08:00:40.953Z,15.77
2019-02-28T08:03:11.219Z,16.14
2019-02-28T08:05:42.314Z,16.55
2019-02-28T08:08:18.789Z,16.21
2019-02-28T08:10:49.297Z,17.10
2019-02-28T08:13:23.136Z,17.55
2019-02-28T08:15:56.840Z,17.57
2019-02-28T08:18:25.375Z,17.71
2019-02-28T08:20:54.681Z,18.49
2019-02-28T08:23:29.956Z,17.91
2019-02-28T08:26:15.572Z,17.19
2019-02-28T08:28:47.221Z,17.96
2019-02-28T08:31:16.639Z,17.08
2019-02-28T08:33:48.148Z,16.88
2019-02-28T08:36:17.939Z,17.49
2019-02-28T08:38:48.315Z,17.19
2019-02-28T08:41:18.570Z,16.95
2019-02-28T08:43:48.917Z,18.01
2019-02-28T08:46:21.303Z,18.17
2019-02-28T08:48:53.011Z,18.43
2019-02-28T08:51:23.312Z,19.14
2019-02-28T08:53:52.630Z,18.78
2019-02-28T08:56:22.964Z,17.73
2019-02-28T08:58:54.518Z,17.64
2019-02-28T09:01:23.270Z,17.96
2019-02-28T09:03:53.521Z,18.10
2019-02-28T09:06:22.878Z,18.51
2019-02-28T09:08:52.247Z,18.31
2019-02-28T09:11:21.709Z,18.26
2019-02-28T09:13:52.025Z,17.43
2019-02-28T09:16:22.451Z,16.74
2019-02-28T09:18:52.688Z,16.59
2019-02-28T09:21:22.928Z,17.44
2019-02-28T09:23:54.639Z,17.29
2019-02-28T09:26:24.912Z,17.09
2019-02-28T09:28:54.254Z,17.43
2019-02-28T09:31:27.863Z,17.68
2019-02-28T09:34:00.080Z,17.79
2019-02-28T09:36:31.831Z,18.17
2019-02-28T09:39:01.186Z,18.92
2019-02-28T09:41:32.915Z,18.04
2019-02-28T09:44:06.973Z,18.83
2019-02-28T09:46:36.975Z,19.26
2019-02-28T09:49:11.795Z,19.37
2019-02-28T09:51:37.324Z,19.88
2019-02-28T09:54:09.617Z,19.87
2019-02-28T09:56:41.125Z,19.96
2019-02-28T09:59:09.558Z,19.57
2019-02-28T10:01:42.466Z,19.71
2019-02-28T10:04:12.849Z,19.85
2019-02-28T10:06:43.156Z,19.67
2019-02-28T10:09:12.552Z,19.78
2019-02-28T10:11:42.838Z,19.72
2019-02-28T10:14:13.042Z,19.13
2019-02-28T10:16:43.305Z,19.16
2019-02-28T10:19:13.453Z,19.41
2019-02-28T10:21:51.917Z,19.42
2019-02-28T10:24:17.776Z,19.27
2019-02-28T10:26:48.264Z,19.65
2019-02-28T10:29:19.115Z,19.77
2019-02-28T10:31:49.418Z,19.41
2019-02-28T10:34:18.750Z,19.37
2019-02-28T10:36:49.934Z,19.32
2019-02-28T10:39:20.256Z,19.83
2019-02-28T10:41:50.743Z,19.87
2019-02-28T10:44:21.009Z,19.61
2019-02-28T10:46:53.807Z,19.46
2019-02-28T10:49:24.143Z,19.59
2019-02-28T10:51:54.420Z,19.87
2019-02-28T10:54:24.686Z,19.54
2019-02-28T10:56:56.496Z,19.51
2019-02-28T10:59:26.735Z,19.52
2019-02-28T11:01:57.109Z,19.61
2019-02-28T11:04:30.184Z,19.77
2019-02-28T11:07:02.238Z,19.88
2019-02-28T11:09:33.944Z,19.64
2019-02-28T11:14:57.780Z,19.36
2019-02-28T11:17:30.417Z,19.15
2019-02-28T11:20:01.719Z,19.19
2019-02-28T11:22:32.085Z,19.00
2019-02-28T11:25:03.893Z,19.34
2019-02-28T11:27:36.879Z,19.33
2019-02-28T11:30:17.572Z,19.32
2019-02-28T11:32:52.569Z,19.55
2019-02-28T11:35:25.942Z,19.61
2019-02-28T11:37:55.409Z,19.18
2019-02-28T11:40:40.484Z,19.09
2019-02-28T11:43:10.197Z,19.29
2019-02-28T11:45:47.665Z,19.23
2019-02-28T11:48:22.449Z,19.36
2019-02-28T11:50:56.410Z,19.67
2019-02-28T11:53:29.403Z,19.73
2019-02-28T11:56:02.064Z,20.06
2019-02-28T11:58:31.518Z,19.82
2019-02-28T12:01:03.795Z,19.51
2019-02-28T12:03:36.599Z,19.37
2019-02-28T12:06:09.011Z,19.61
2019-02-28T12:08:41.668Z,19.82
2019-02-28T12:11:09.783Z,19.64
2019-02-28T12:13:39.417Z,19.64
2019-02-28T12:16:11.429Z,19.51
2019-02-28T12:18:41.840Z,19.48
2019-02-28T12:21:11.183Z,19.46
2019-02-28T12:23:42.864Z,19.58
2019-02-28T12:26:14.350Z,19.74
2019-02-28T12:28:45.233Z,19.68
2019-02-28T12:31:15.541Z,19.75
2019-02-28T12:33:45.897Z,19.69
2019-02-28T12:36:17.073Z,19.65
2019-02-28T12:38:46.519Z,19.74
2019-02-28T12:41:15.794Z,19.56
2019-02-28T12:43:46.105Z,19.57
2019-02-28T12:46:18.128Z,19.44
2019-02-28T12:48:49.873Z,19.39
2019-02-28T12:51:20.084Z,19.35
2019-02-28T12:53:49.369Z,19.20
2019-02-28T12:56:20.105Z,18.86
2019-02-28T12:58:50.352Z,18.73
2019-02-28T13:01:22.746Z,18.88
2019-02-28T13:03:57.822Z,19.08
2019-02-28T13:06:23.751Z,19.02
2019-02-28T13:08:54.033Z,18.70
2019-02-28T13:11:23.327Z,18.77
2019-02-28T13:13:53.632Z,18.98
2019-02-28T13:16:24.048Z,18.99
2019-02-28T13:18:54.809Z,19.05
2019-02-28T13:21:23.541Z,18.82
2019-02-28T13:23:53.959Z,18.90
2019-02-28T13:26:24.212Z,19.22
2019-02-28T13:28:54.560Z,19.47
2019-02-28T13:31:25.618Z,19.56
2019-02-28T13:33:53.970Z,19.82
2019-02-28T13:36:22.837Z,19.73
2019-02-28T13:38:54.690Z,19.50
2019-02-28T13:41:26.389Z,19.39
2019-02-28T13:43:59.304Z,19.28
2019-02-28T13:46:33.900Z,19.16
2019-02-28T13:49:00.011Z,19.06
2019-02-28T13:51:32.765Z,19.11
2019-02-28T13:54:06.484Z,19.19
2019-02-28T13:56:35.376Z,19.04
2019-02-28T13:59:08.945Z,18.98
2019-02-28T14:01:38.330Z,18.68
2019-02-28T14:04:10.542Z,18.54
2019-02-28T14:06:39.405Z,18.32
2019-02-28T14:09:09.167Z,18.48
2019-02-28T14:11:41.812Z,18.68
2019-02-28T14:14:14.319Z,18.62
2019-02-28T14:16:44.627Z,18.47
2019-02-28T14:19:20.524Z,18.34
2019-02-28T14:21:48.366Z,18.23
2019-02-28T14:24:18.638Z,17.93
2019-02-28T14:26:49.658Z,17.77
2019-02-28T14:29:20.934Z,17.83
2019-02-28T14:31:51.322Z,18.00
2019-02-28T14:34:26.044Z,18.22
2019-02-28T14:36:55.646Z,18.41
2019-02-28T14:39:27.381Z,18.51
2019-02-28T14:41:56.916Z,18.14
2019-02-28T14:44:32.636Z,17.89
2019-02-28T14:47:03.969Z,17.83
2019-02-28T14:49:37.777Z,17.93
2019-02-28T14:52:08.169Z,18.16
2019-02-28T14:54:36.684Z,18.25
2019-02-28T14:57:08.561Z,18.32
2019-02-28T14:59:40.700Z,18.51
2019-02-28T15:02:11.409Z,18.35
2019-02-28T15:04:42.824Z,18.43
2019-02-28T15:07:13.971Z,18.47
2019-02-28T15:09:44.115Z,18.50
2019-02-28T15:12:13.311Z,18.36
2019-02-28T15:14:45.522Z,18.12
2019-02-28T15:17:16.180Z,17.88
2019-02-28T15:19:45.598Z,17.68
2019-02-28T15:22:17.230Z,17.52
2019-02-28T15:24:45.449Z,17.59
2019-02-28T15:27:15.701Z,17.64
2019-02-28T15:29:47.571Z,17.64
2019-02-28T15:32:25.196Z,17.68
2019-02-28T15:35:05.200Z,17.80
2019-02-28T15:37:37.621Z,17.89
2019-02-28T15:40:13.684Z,17.86
2019-02-28T15:42:44.155Z,17.96
2019-02-28T15:45:14.442Z,17.93
2019-02-28T15:47:43.864Z,17.84
2019-02-28T15:50:16.377Z,17.77
2019-02-28T15:52:45.343Z,17.55
2019-02-28T15:55:17.691Z,17.42
2019-02-28T15:57:49.840Z,17.33
2019-02-28T16:00:25.656Z,17.20
2019-02-28T16:02:56.408Z,17.06
2019-02-28T16:05:26.822Z,16.90
2019-02-28T16:07:57.859Z,16.83
2019-02-28T16:10:35.442Z,16.71
2019-02-28T16:13:07.317Z,16.63
2019-02-28T16:15:39.477Z,16.53
2019-02-28T16:18:12.145Z,16.44
2019-02-28T16:20:43.412Z,16.38
2019-02-28T16:23:12.687Z,16.26
2019-02-28T16:25:42.127Z,16.18
2019-02-28T16:28:14.744Z,16.03
2019-02-28T16:30:45.175Z,15.95
2019-02-28T16:33:15.725Z,15.93
2019-02-28T16:35:46.799Z,15.88
2019-02-28T16:38:19.440Z,15.79
2019-02-28T16:40:49.712Z,15.66
2019-02-28T16:43:20.909Z,15.59
2019-02-28T16:45:52.320Z,15.49
2019-02-28T16:48:24.468Z,15.38
2019-02-28T16:50:56.175Z,15.34
2019-02-28T16:53:26.519Z,15.27
2019-02-28T16:55:56.726Z,15.18
2019-02-28T16:58:26.058Z,15.10
2019-02-28T17:00:55.416Z,15.03
2019-02-28T17:03:25.813Z,14.99
2019-02-28T17:05:55.092Z,14.90
2019-02-28T17:08:24.468Z,14.91
2019-02-28T17:10:56.692Z,14.84
2019-02-28T17:13:29.982Z,14.81
2019-02-28T17:16:16.693Z,14.74
2019-02-28T17:21:17.838Z,14.61
2019-02-28T17:23:48.336Z,14.60
2019-02-28T17:26:18.640Z,14.53
2019-02-28T17:28:53.717Z,14.50
2019-02-28T17:31:37.424Z,14.44
2019-02-28T17:34:06.834Z,14.41
2019-02-28T17:36:36.177Z,14.36
2019-02-28T17:39:07.867Z,14.30
2019-02-28T17:41:38.490Z,14.24
2019-02-28T17:44:26.608Z,14.16
2019-02-28T17:47:04.789Z,14.15
2019-02-28T17:50:07.555Z,14.08
2019-02-28T17:53:07.068Z,14.04
2019-02-28T17:55:55.847Z,13.95
2019-02-28T17:58:34.259Z,13.93
2019-02-28T18:01:28.722Z,13.86
2019-02-28T18:04:03.703Z,13.86
2019-02-28T18:06:43.725Z,13.82
2019-02-28T18:09:35.932Z,13.74
2019-02-28T18:12:21.448Z,13.73
2019-02-28T18:15:08.992Z,13.61
2019-02-28T18:17:47.459Z,13.51
2019-02-28T18:20:36.207Z,13.43
2019-02-28T18:23:14.033Z,13.43
2019-02-28T18:25:58.991Z,13.47
2019-02-28T18:28:36.466Z,13.42
2019-02-28T18:31:12.299Z,13.36
2019-02-28T18:36:25.026Z,13.39
2019-02-28T18:38:56.911Z,13.36
2019-02-28T18:41:29.079Z,13.35
2019-02-28T18:43:59.976Z,13.38
2019-02-28T18:46:30.814Z,13.36
2019-02-28T18:49:00.219Z,13.35
2019-02-28T18:51:29.552Z,13.22
2019-02-28T18:53:58.928Z,13.21
2019-02-28T18:56:28.237Z,13.20
2019-02-28T18:59:10.635Z,13.22
2019-02-28T19:01:44.117Z,13.18
2019-02-28T19:04:14.483Z,13.14
2019-02-28T19:06:44.720Z,13.14
2019-02-28T19:09:20.823Z,13.16
2019-02-28T19:11:51.178Z,13.21
2019-02-28T19:14:20.516Z,13.20
2019-02-28T19:16:51.037Z,13.27
2019-02-28T19:19:19.803Z,13.27
2019-02-28T19:21:49.356Z,13.21
2019-02-28T19:24:21.488Z,13.24
2019-02-28T19:26:53.207Z,13.29
2019-02-28T19:29:22.484Z,13.26
2019-02-28T19:31:55.135Z,13.32
2019-02-28T19:34:24.434Z,13.37
2019-02-28T19:36:53.744Z,13.47
2019-02-28T19:39:24.010Z,13.47
2019-02-28T19:41:56.562Z,13.45
2019-02-28T19:44:28.720Z,13.44
2019-02-28T19:46:59.989Z,13.40
2019-02-28T19:49:29.393Z,13.38
2019-02-28T19:51:58.672Z,13.33
2019-02-28T19:54:29.561Z,13.29
2019-02-28T19:57:03.312Z,13.31
2019-02-28T19:59:33.624Z,13.24
2019-02-28T20:02:04.468Z,13.21
2019-02-28T20:04:36.182Z,13.20
2019-02-28T20:07:06.612Z,13.18
2019-02-28T20:09:36.144Z,13.14
2019-02-28T20:12:06.474Z,13.10
2019-02-28T20:14:36.719Z,13.12
2019-02-28T20:17:06.262Z,13.15
2019-02-28T20:19:37.046Z,13.21
2019-02-28T20:22:09.726Z,13.21
2019-02-28T20:24:46.737Z,13.19
2019-02-28T20:27:18.908Z,13.16
2019-02-28T20:29:55.155Z,13.10
2019-02-28T20:32:23.324Z,13.06
2019-02-28T20:34:53.552Z,13.08
2019-02-28T20:37:26.257Z,12.99
2019-02-28T20:39:55.579Z,13.04
2019-02-28T20:42:25.486Z,13.00
2019-02-28T20:44:54.802Z,13.01
2019-02-28T20:47:27.000Z,12.95
2019-02-28T20:49:57.258Z,12.87
2019-02-28T20:52:26.579Z,12.84
2019-02-28T20:54:55.882Z,12.77
2019-02-28T20:57:25.160Z,12.71
2019-02-28T20:59:55.395Z,12.63
2019-02-28T21:02:25.747Z,12.57
2019-02-28T21:04:56.088Z,12.53
2019-02-28T21:07:25.486Z,12.48
2019-02-28T21:09:55.797Z,12.42
2019-02-28T21:12:26.770Z,12.32
2019-02-28T21:14:57.068Z,12.31
2019-02-28T21:17:29.368Z,12.29
2019-02-28T21:19:57.478Z,12.28
2019-02-28T21:22:28.720Z,12.26
2019-02-28T21:24:59.020Z,12.18
2019-02-28T21:27:27.488Z,12.11
2019-02-28T21:29:57.776Z,12.11
2019-02-28T21:32:28.058Z,12.09
2019-02-28T21:34:57.373Z,12.03
2019-02-28T21:37:27.569Z,11.93
2019-02-28T21:39:56.879Z,11.78
2019-02-28T21:42:27.370Z,11.79
2019-02-28T21:44:59.444Z,11.80
2019-02-28T21:47:29.769Z,11.72
2019-02-28T21:49:59.125Z,11.71
2019-02-28T21:52:28.410Z,11.67
2019-02-28T21:54:58.642Z,11.70
2019-02-28T21:57:30.742Z,11.72
2019-02-28T22:00:00.986Z,11.65
2019-02-28T22:02:31.130Z,11.62
2019-02-28T22:05:02.514Z,11.53
2019-02-28T22:07:32.821Z,11.53
2019-02-28T22:10:02.105Z,11.57
2019-02-28T22:12:31.370Z,11.55
2019-02-28T22:15:01.684Z,11.51
2019-02-28T22:17:31.028Z,11.42
2019-02-28T22:19:59.764Z,11.39
2019-02-28T22:22:30.024Z,11.40
2019-02-28T22:25:00.373Z,11.34
2019-02-28T22:27:30.642Z,11.34
2019-02-28T22:30:03.636Z,11.37
2019-02-28T22:32:35.604Z,11.33
2019-02-28T22:35:06.997Z,11.32
2019-02-28T22:37:36.305Z,11.36
2019-02-28T22:40:08.179Z,11.24
2019-02-28T22:42:38.549Z,11.19
2019-02-28T22:45:09.814Z,11.12
2019-02-28T22:47:40.105Z,11.06
2019-02-28T22:50:10.415Z,11.07
2019-02-28T22:52:40.723Z,10.99
2019-02-28T22:55:11.120Z,10.93
2019-02-28T22:57:40.478Z,10.87
2019-02-28T23:00:18.767Z,10.74
2019-02-28T23:02:48.054Z,10.67
2019-02-28T23:05:18.389Z,10.65
2019-02-28T23:07:50.512Z,10.69
2019-02-28T23:10:23.829Z,10.60
2019-02-28T23:12:54.130Z,10.50
2019-02-28T23:15:25.920Z,10.44
2019-02-28T23:17:55.245Z,10.37
2019-02-28T23:20:25.684Z,10.40
2019-02-28T23:22:54.928Z,10.43
2019-02-28T23:25:25.334Z,10.40
2019-02-28T23:27:58.639Z,10.41
2019-02-28T23:31:03.981Z,10.44
2019-02-28T23:33:34.762Z,10.49
2019-02-28T23:36:03.544Z,10.51
2019-02-28T23:38:33.841Z,10.50
2019-02-28T23:41:06.728Z,10.38
2019-02-28T23:43:38.900Z,10.34
2019-02-28T23:46:08.296Z,10.36
2019-02-28T23:48:38.513Z,10.37
2019-02-28T23:51:08.807Z,10.27
2019-02-28T23:53:38.156Z,10.18
2019-02-28T23:56:08.367Z,10.09
2019-02-28T23:58:38.673Z,10.08
